createdAt,value
2023-04-28T16:48:35.086Z,13.00
2023-04-28T16:58:46.108Z,12.15
2023-04-28T17:08:59.131Z,12.90
2023-04-28T17:19:12.127Z,9.90
2023-04-28T17:29:26.148Z,15.00
2023-04-28T17:39:39.144Z,18.80
2023-04-28T17:50:00.232Z,17.40
2023-04-28T18:00:14.132Z,17.70
2023-04-28T18:10:27.173Z,20.60
2023-04-28T18:20:40.184Z,16.30
2023-04-28T18:30:53.189Z,18.80
2023-04-28T18:41:06.284Z,19.30
2023-04-28T18:51:19.321Z,24.30
2023-04-28T19:01:33.294Z,23.80
2023-04-28T19:11:46.215Z,26.80
2023-04-28T19:22:00.227Z,29.30
2023-04-28T19:32:13.266Z,26.00
2023-04-28T19:42:27.231Z,27.90
2023-04-28T19:52:40.250Z,25.70
2023-04-28T20:02:53.390Z,25.10
2023-04-28T20:13:06.310Z,27.40
2023-04-28T20:23:19.257Z,26.70
2023-04-28T20:33:32.297Z,26.40
2023-04-28T20:43:45.276Z,24.70
2023-04-28T20:53:58.293Z,24.10
2023-04-28T21:04:11.370Z,22.90
2023-04-28T21:14:24.324Z,22.40
2023-04-28T21:24:37.295Z,22.40
2023-04-28T21:34:50.327Z,23.50
2023-04-28T21:45:03.335Z,23.50
2023-04-28T21:55:16.379Z,23.50
2023-04-28T22:05:29.329Z,21.20
2023-04-28T22:15:42.459Z,23.00
2023-04-28T22:25:55.325Z,24.70
2023-04-28T22:36:08.384Z,22.50
2023-04-28T22:46:28.385Z,24.90
2023-04-28T22:56:41.384Z,25.20
2023-04-28T23:06:54.392Z,22.80
2023-04-28T23:17:07.407Z,30.80
2023-04-28T23:27:20.404Z,32.30
2023-04-28T23:37:33.418Z,30.20
2023-04-28T23:47:53.531Z,30.00
2023-04-28T23:58:06.417Z,29.20
